createdAt,value
2023-09-06T00:01:26.083Z,51.01
2023-09-06T00:03:57.009Z,50.47
2023-09-06T00:06:25.338Z,49.05
2023-09-06T00:08:53.701Z,48.55
2023-09-06T00:11:22.475Z,48.81
2023-09-06T00:13:50.741Z,48.43
2023-09-06T00:16:19.097Z,47.46
2023-09-06T00:18:47.448Z,47.37
2023-09-06T00:21:15.765Z,47.65
2023-09-06T00:23:44.061Z,46.41
2023-09-06T00:26:14.298Z,46.11
2023-09-06T00:28:42.609Z,46.77
2023-09-06T00:31:11.017Z,46.26
2023-09-06T00:33:39.337Z,46.19
2023-09-06T00:36:08.034Z,45.60
2023-09-06T00:38:36.381Z,45.86
2023-09-06T00:41:05.026Z,46.00
2023-09-06T00:43:33.344Z,47.61
2023-09-06T00:46:07.579Z,46.40
2023-09-06T00:48:36.211Z,46.31
2023-09-06T00:51:05.757Z,45.29
2023-09-06T00:53:34.773Z,46.01
2023-09-06T00:56:09.776Z,46.47
2023-09-06T00:58:39.362Z,46.83
2023-09-06T01:01:08.015Z,48.21
2023-09-06T01:03:36.555Z,46.83
2023-09-06T01:06:20.374Z,47.83
2023-09-06T01:09:00.123Z,46.39
2023-09-06T01:11:28.911Z,46.14
2023-09-06T01:14:00.821Z,45.12
2023-09-06T01:16:59.895Z,45.34
2023-09-06T01:19:30.130Z,45.63
2023-09-06T01:22:24.691Z,45.08
2023-09-06T01:24:53.106Z,44.21
2023-09-06T01:27:23.506Z,45.32
2023-09-06T01:29:52.145Z,46.56
2023-09-06T01:32:20.404Z,48.23
2023-09-06T01:34:48.697Z,47.79
2023-09-06T01:37:17.029Z,47.29
2023-09-06T01:39:45.304Z,47.02
2023-09-06T01:42:13.663Z,46.28
2023-09-06T01:44:42.092Z,45.19
2023-09-06T01:47:10.497Z,44.86
2023-09-06T01:49:38.808Z,44.54
2023-09-06T01:52:07.400Z,45.33
2023-09-06T01:54:35.691Z,45.09
2023-09-06T01:57:12.981Z,44.35
2023-09-06T01:59:41.401Z,44.30
2023-09-06T02:02:10.262Z,44.66
2023-09-06T02:04:39.434Z,43.68
2023-09-06T02:07:07.828Z,44.78
2023-09-06T02:09:38.410Z,45.54
2023-09-06T02:12:07.600Z,46.06
2023-09-06T02:14:35.911Z,45.80
2023-09-06T02:17:04.922Z,45.05
2023-09-06T02:19:34.641Z,44.33
2023-09-06T02:22:02.945Z,44.29
2023-09-06T02:24:31.270Z,44.46
2023-09-06T02:27:24.440Z,44.43
2023-09-06T02:29:54.666Z,44.05
2023-09-06T02:32:23.079Z,44.53
2023-09-06T02:34:51.465Z,43.95
2023-09-06T02:37:19.784Z,44.69
2023-09-06T02:39:49.182Z,44.34
2023-09-06T02:42:17.852Z,44.11
2023-09-06T02:44:46.549Z,45.73
2023-09-06T02:47:18.298Z,46.54
2023-09-06T02:49:49.024Z,45.80
2023-09-06T02:52:29.498Z,45.26
2023-09-06T02:55:06.067Z,44.46
2023-09-06T02:57:36.135Z,44.05
2023-09-06T03:00:18.666Z,44.24
2023-09-06T03:02:48.950Z,44.42
2023-09-06T03:05:19.303Z,45.33
2023-09-06T03:07:49.479Z,44.86
2023-09-06T03:10:21.137Z,44.92
2023-09-06T03:12:57.281Z,44.50
2023-09-06T03:15:29.610Z,44.76
2023-09-06T03:18:16.921Z,44.94
2023-09-06T03:20:45.321Z,44.87
2023-09-06T03:23:28.199Z,44.74
2023-09-06T03:25:59.289Z,45.43
2023-09-06T03:28:34.910Z,45.96
2023-09-06T03:31:03.993Z,45.07
2023-09-06T03:33:32.542Z,44.87
2023-09-06T03:36:01.687Z,44.77
2023-09-06T03:38:31.025Z,44.68
2023-09-06T03:41:03.835Z,47.14
2023-09-06T03:43:33.326Z,48.67
2023-09-06T03:46:08.733Z,48.98
2023-09-06T03:48:37.953Z,48.46
2023-09-06T03:51:06.866Z,47.46
2023-09-06T03:53:38.551Z,46.94
2023-09-06T03:56:07.726Z,48.39
2023-09-06T03:58:42.148Z,47.96
2023-09-06T04:01:12.063Z,47.54
2023-09-06T04:03:41.740Z,47.46
2023-09-06T04:06:12.063Z,48.05
2023-09-06T04:08:40.985Z,48.84
2023-09-06T04:11:12.566Z,48.83
2023-09-06T04:13:44.552Z,49.50
2023-09-06T04:16:15.537Z,49.20
2023-09-06T04:18:45.285Z,49.16
2023-09-06T04:21:13.664Z,49.02
2023-09-06T04:23:45.854Z,50.98
2023-09-06T04:26:17.432Z,51.79
2023-09-06T04:28:45.908Z,51.18
2023-09-06T04:31:19.006Z,49.80
2023-09-06T04:33:48.986Z,49.92
2023-09-06T04:36:21.461Z,49.55
2023-09-06T04:38:54.177Z,49.70
2023-09-06T04:41:23.184Z,49.21
2023-09-06T04:43:56.428Z,48.57
2023-09-06T04:46:26.729Z,48.32
2023-09-06T04:48:56.413Z,48.34
2023-09-06T04:51:26.071Z,48.76
2023-09-06T04:53:55.497Z,50.51
2023-09-06T04:56:32.196Z,49.97
2023-09-06T04:59:01.695Z,49.97
2023-09-06T05:01:32.491Z,49.54
2023-09-06T05:04:01.170Z,49.37
2023-09-06T05:06:31.161Z,49.20
2023-09-06T05:09:02.684Z,48.83
2023-09-06T05:11:30.988Z,48.78
2023-09-06T05:13:59.271Z,48.10
2023-09-06T05:16:30.266Z,47.95
2023-09-06T05:18:58.678Z,47.67
2023-09-06T05:21:32.075Z,48.37
2023-09-06T05:24:00.863Z,48.53
2023-09-06T05:26:29.905Z,48.10
2023-09-06T05:28:59.012Z,49.07
2023-09-06T05:31:27.647Z,49.21
2023-09-06T05:33:56.348Z,50.20
2023-09-06T05:36:25.242Z,50.18
2023-09-06T05:38:54.390Z,50.57
2023-09-06T05:41:25.420Z,50.89
2023-09-06T05:43:53.794Z,50.23
2023-09-06T05:46:33.043Z,49.75
2023-09-06T05:49:11.106Z,50.98
2023-09-06T05:51:43.392Z,53.23
2023-09-06T05:54:12.772Z,52.75
2023-09-06T05:57:07.110Z,51.98
2023-09-06T05:59:37.828Z,52.51
2023-09-06T06:02:09.225Z,55.80
2023-09-06T06:04:38.372Z,59.21
2023-09-06T06:07:07.523Z,63.38
2023-09-06T06:09:36.822Z,62.71
2023-09-06T06:12:05.308Z,61.03
2023-09-06T06:14:33.708Z,64.29
2023-09-06T06:17:02.255Z,62.68
2023-09-06T06:19:30.556Z,63.84
2023-09-06T06:21:59.389Z,64.43
2023-09-06T06:24:47.138Z,65.01
2023-09-06T06:27:15.643Z,64.52
2023-09-06T06:29:43.981Z,65.58
2023-09-06T06:32:12.567Z,68.11
2023-09-06T06:34:40.938Z,67.23
2023-09-06T06:37:09.189Z,65.16
2023-09-06T06:39:41.405Z,66.68
2023-09-06T06:42:16.702Z,67.29
2023-09-06T06:45:00.558Z,66.91
2023-09-06T06:47:29.157Z,67.32
2023-09-06T06:49:58.792Z,66.19
2023-09-06T06:52:31.968Z,66.67
2023-09-06T06:55:00.629Z,68.95
2023-09-06T06:57:28.924Z,68.87
2023-09-06T06:59:59.466Z,66.61
2023-09-06T07:02:27.852Z,68.46
2023-09-06T07:04:59.005Z,67.34
2023-09-06T07:07:27.272Z,69.11
2023-09-06T07:09:55.515Z,67.88
2023-09-06T07:12:23.963Z,71.91
2023-09-06T07:14:53.090Z,69.72
2023-09-06T07:17:26.736Z,69.98
2023-09-06T07:19:55.290Z,67.92
2023-09-06T07:22:23.578Z,68.02
2023-09-06T07:24:53.075Z,67.05
2023-09-06T07:27:28.524Z,66.34
2023-09-06T07:29:56.769Z,66.15
2023-09-06T07:32:28.045Z,65.91
2023-09-06T07:34:56.344Z,67.70
2023-09-06T07:37:24.795Z,66.36
2023-09-06T07:39:54.240Z,66.96
2023-09-06T07:42:46.981Z,65.88
2023-09-06T07:45:15.477Z,65.85
2023-09-06T07:47:44.400Z,65.58
2023-09-06T07:50:13.084Z,66.77
2023-09-06T07:52:43.532Z,65.46
2023-09-06T07:55:13.663Z,65.72
2023-09-06T07:57:41.933Z,66.25
2023-09-06T08:00:37.290Z,67.72
2023-09-06T08:03:06.158Z,68.04
2023-09-06T08:05:36.319Z,67.25
2023-09-06T08:08:10.357Z,66.13
2023-09-06T08:10:39.420Z,65.20
2023-09-06T08:13:08.137Z,65.61
2023-09-06T08:15:38.395Z,65.11
2023-09-06T08:18:07.053Z,64.16
2023-09-06T08:20:35.486Z,64.67
2023-09-06T08:23:05.216Z,66.81
2023-09-06T08:25:35.169Z,67.88
2023-09-06T08:28:03.898Z,65.78
2023-09-06T08:30:32.247Z,63.67
2023-09-06T08:33:00.705Z,63.30
2023-09-06T08:35:29.182Z,63.84
2023-09-06T08:37:57.454Z,62.42
2023-09-06T08:40:25.898Z,62.03
2023-09-06T08:42:54.433Z,64.30
2023-09-06T08:45:24.100Z,64.51
2023-09-06T08:47:52.523Z,64.34
2023-09-06T08:50:21.101Z,63.73
2023-09-06T08:52:55.160Z,64.44
2023-09-06T08:55:24.701Z,63.00
2023-09-06T08:57:53.336Z,62.01
2023-09-06T09:00:24.765Z,62.39
2023-09-06T09:02:53.498Z,62.68
2023-09-06T09:05:23.447Z,62.75
2023-09-06T09:08:00.434Z,61.51
2023-09-06T09:10:33.353Z,61.17
2023-09-06T09:13:02.751Z,60.78
2023-09-06T09:15:35.160Z,59.43
2023-09-06T09:18:32.432Z,62.17
2023-09-06T09:21:03.263Z,60.68
2023-09-06T09:23:56.679Z,60.34
2023-09-06T09:26:25.070Z,61.88
2023-09-06T09:28:53.400Z,59.55
2023-09-06T09:31:22.223Z,59.45
2023-09-06T09:33:56.909Z,60.24
2023-09-06T09:36:29.631Z,59.14
2023-09-06T09:38:58.048Z,58.72
2023-09-06T09:41:26.303Z,59.14
2023-09-06T09:44:16.537Z,57.52
2023-09-06T09:46:45.719Z,57.04
2023-09-06T09:49:15.103Z,57.63
2023-09-06T09:51:43.580Z,55.88
2023-09-06T09:54:14.424Z,55.86
2023-09-06T09:56:43.006Z,55.71
2023-09-06T09:59:13.474Z,54.86
2023-09-06T10:01:42.147Z,53.81
2023-09-06T10:04:14.844Z,53.60
2023-09-06T10:06:44.398Z,53.06
2023-09-06T10:09:13.781Z,52.12
2023-09-06T10:11:43.171Z,51.53
2023-09-06T10:14:26.523Z,51.96
2023-09-06T10:16:55.240Z,51.55
2023-09-06T10:19:23.741Z,51.81
2023-09-06T10:21:54.221Z,52.94
2023-09-06T10:24:24.200Z,51.46
2023-09-06T10:26:55.192Z,51.36
2023-09-06T10:29:32.120Z,51.53
2023-09-06T10:32:06.899Z,51.39
2023-09-06T10:35:28.086Z,50.16
2023-09-06T10:38:06.788Z,52.30
2023-09-06T10:40:50.586Z,50.77
2023-09-06T10:43:54.137Z,48.97
2023-09-06T10:46:30.623Z,46.76
2023-09-06T10:49:22.522Z,46.84
2023-09-06T10:52:09.599Z,47.08
2023-09-06T10:54:45.069Z,44.49
2023-09-06T10:57:15.841Z,41.99
2023-09-06T10:59:58.677Z,40.32
2023-09-06T11:02:28.215Z,37.99
2023-09-06T11:05:11.301Z,36.14
2023-09-06T11:10:24.072Z,31.68
2023-09-06T11:12:55.800Z,32.37
2023-09-06T11:15:27.053Z,30.98
2023-09-06T11:18:01.270Z,29.93
2023-09-06T11:20:31.426Z,29.50
2023-09-06T11:23:02.293Z,28.36
2023-09-06T11:25:35.461Z,29.08
2023-09-06T11:28:20.535Z,28.43
2023-09-06T11:30:49.988Z,29.14
2023-09-06T11:33:19.335Z,24.62
2023-09-06T11:36:14.570Z,25.80
2023-09-06T11:38:44.585Z,25.83
2023-09-06T11:41:14.215Z,25.97
2023-09-06T11:43:47.634Z,25.54
2023-09-06T11:46:18.450Z,25.47
2023-09-06T11:48:48.768Z,22.23
2023-09-06T11:51:23.353Z,23.58
2023-09-06T11:54:01.818Z,23.12
2023-09-06T11:56:32.138Z,24.70
2023-09-06T11:59:01.204Z,24.76
2023-09-06T12:01:30.126Z,22.64
2023-09-06T12:04:00.450Z,22.92
2023-09-06T12:06:30.220Z,22.54
2023-09-06T12:08:58.742Z,21.39
2023-09-06T12:11:28.500Z,22.37
2023-09-06T12:13:58.190Z,21.84
2023-09-06T12:16:26.758Z,21.30
2023-09-06T12:18:55.835Z,21.62
2023-09-06T12:21:24.046Z,20.49
2023-09-06T12:23:52.879Z,20.68
2023-09-06T12:26:21.894Z,21.47
2023-09-06T12:28:51.316Z,21.21
2023-09-06T12:31:19.975Z,19.97
2023-09-06T12:33:50.885Z,20.81
2023-09-06T12:36:19.802Z,19.45
2023-09-06T12:38:48.689Z,20.61
2023-09-06T12:41:16.961Z,20.08
2023-09-06T12:43:45.404Z,19.61
2023-09-06T12:46:14.179Z,18.25
2023-09-06T12:48:44.063Z,20.40
2023-09-06T12:51:12.921Z,19.67
2023-09-06T12:53:41.368Z,19.40
2023-09-06T12:56:14.308Z,18.96
2023-09-06T12:58:44.426Z,18.71
2023-09-06T13:01:13.889Z,18.25
2023-09-06T13:03:45.351Z,18.15
2023-09-06T13:06:13.902Z,17.00
2023-09-06T13:08:43.338Z,17.16
2023-09-06T13:11:13.971Z,18.33
2023-09-06T13:13:42.759Z,18.46
2023-09-06T13:16:13.137Z,18.28
2023-09-06T13:18:43.309Z,17.57
2023-09-06T13:21:13.132Z,17.98
2023-09-06T13:23:41.386Z,18.36
2023-09-06T13:26:11.583Z,16.29
2023-09-06T13:28:40.543Z,18.24
2023-09-06T13:31:09.031Z,17.33
2023-09-06T13:33:44.399Z,17.85
2023-09-06T13:36:15.701Z,17.54
2023-09-06T13:38:49.091Z,16.85
2023-09-06T13:41:17.496Z,17.14
2023-09-06T13:44:11.061Z,16.93
2023-09-06T13:46:39.069Z,16.91
2023-09-06T13:49:10.575Z,16.55
2023-09-06T13:51:50.725Z,17.00
2023-09-06T13:54:18.772Z,15.23
2023-09-06T13:56:50.869Z,16.86
2023-09-06T13:59:43.836Z,17.19
2023-09-06T14:02:13.037Z,17.50
2023-09-06T14:04:45.034Z,16.82
2023-09-06T14:07:26.039Z,16.85
2023-09-06T14:09:55.314Z,16.36
2023-09-06T14:12:32.363Z,15.77
2023-09-06T14:15:07.671Z,15.36
2023-09-06T14:17:39.824Z,16.09
2023-09-06T14:20:10.677Z,15.64
2023-09-06T14:22:41.919Z,16.57
2023-09-06T14:25:13.159Z,16.67
2023-09-06T14:27:41.071Z,16.37
2023-09-06T14:30:12.049Z,16.10
2023-09-06T14:32:44.188Z,16.24
2023-09-06T14:35:12.303Z,17.24
2023-09-06T14:37:42.505Z,16.19
2023-09-06T14:40:13.788Z,16.56
2023-09-06T14:42:45.853Z,16.54
2023-09-06T14:45:16.975Z,16.47
2023-09-06T14:47:45.081Z,16.20
2023-09-06T14:50:13.537Z,15.65
2023-09-06T14:52:41.850Z,15.92
2023-09-06T14:55:10.178Z,15.88
2023-09-06T14:57:40.760Z,15.66
2023-09-06T15:00:10.867Z,16.97
2023-09-06T15:02:39.433Z,16.11
2023-09-06T15:05:14.493Z,15.51
2023-09-06T15:07:45.971Z,15.00
2023-09-06T15:10:16.855Z,15.71
2023-09-06T15:12:46.947Z,15.98
2023-09-06T15:15:17.171Z,16.73
2023-09-06T15:17:45.234Z,15.71
2023-09-06T15:20:38.809Z,15.13
2023-09-06T15:23:07.830Z,15.01
2023-09-06T15:25:40.560Z,15.98
2023-09-06T15:28:10.922Z,16.71
2023-09-06T15:30:40.335Z,16.11
2023-09-06T15:33:08.569Z,15.57
2023-09-06T15:35:38.776Z,15.70
2023-09-06T15:38:08.710Z,15.18
2023-09-06T15:40:41.102Z,15.34
2023-09-06T15:43:10.174Z,15.39
2023-09-06T15:45:39.494Z,15.73
2023-09-06T15:48:07.760Z,14.90
2023-09-06T15:50:36.037Z,16.31
2023-09-06T15:53:11.346Z,16.53
2023-09-06T15:55:44.967Z,16.61
2023-09-06T15:58:29.356Z,17.09
2023-09-06T16:01:25.878Z,16.30
2023-09-06T16:03:53.974Z,17.61
2023-09-06T16:06:27.086Z,17.62
2023-09-06T16:09:35.266Z,17.29
2023-09-06T16:12:33.503Z,17.59
2023-09-06T16:15:02.799Z,17.23
2023-09-06T16:17:31.253Z,17.18
2023-09-06T16:19:59.670Z,17.63
2023-09-06T16:22:52.734Z,17.45
2023-09-06T16:25:38.185Z,17.52
2023-09-06T16:28:06.320Z,17.67
2023-09-06T16:31:01.149Z,17.98
2023-09-06T16:33:36.477Z,18.08
2023-09-06T16:36:09.003Z,18.30
2023-09-06T16:38:37.233Z,18.11
2023-09-06T16:41:11.483Z,19.05
2023-09-06T16:43:44.517Z,18.94
2023-09-06T16:46:15.545Z,18.80
2023-09-06T16:48:44.696Z,18.80
2023-09-06T16:51:15.492Z,19.17
2023-09-06T16:53:56.579Z,19.64
2023-09-06T16:56:27.960Z,19.62
2023-09-06T16:58:57.999Z,19.92
2023-09-06T17:01:26.653Z,20.37
2023-09-06T17:03:55.048Z,20.24
2023-09-06T17:06:48.435Z,20.07
2023-09-06T17:09:16.763Z,20.58
2023-09-06T17:11:45.517Z,20.84
2023-09-06T17:14:13.868Z,21.51
2023-09-06T17:16:42.431Z,21.73
2023-09-06T17:19:11.398Z,21.61
2023-09-06T17:21:41.154Z,21.86
2023-09-06T17:24:15.436Z,22.27
2023-09-06T17:26:55.086Z,22.50
2023-09-06T17:29:23.141Z,23.32
2023-09-06T17:31:52.323Z,23.80
2023-09-06T17:34:20.686Z,24.00
2023-09-06T17:37:03.837Z,23.91
2023-09-06T17:39:32.285Z,24.00
2023-09-06T17:42:01.893Z,24.79
2023-09-06T17:44:32.657Z,25.56
2023-09-06T17:47:15.396Z,26.22
2023-09-06T17:49:43.734Z,26.53
2023-09-06T17:52:12.142Z,27.13
2023-09-06T17:54:49.441Z,27.60
2023-09-06T17:57:43.015Z,27.42
2023-09-06T18:00:16.794Z,27.96
2023-09-06T18:02:47.901Z,28.46
2023-09-06T18:05:18.618Z,28.97
2023-09-06T18:08:15.457Z,28.94
2023-09-06T18:10:45.180Z,30.30
2023-09-06T18:13:15.194Z,31.17
2023-09-06T18:15:50.139Z,30.91
2023-09-06T18:18:44.451Z,29.99
2023-09-06T18:21:15.591Z,31.42
2023-09-06T18:23:45.789Z,30.67
2023-09-06T18:26:14.691Z,30.57
2023-09-06T18:28:43.303Z,30.70
2023-09-06T18:31:11.631Z,30.88
2023-09-06T18:34:07.299Z,31.05
2023-09-06T18:36:36.749Z,34.02
2023-09-06T18:39:09.912Z,32.20
2023-09-06T18:41:38.188Z,32.14
2023-09-06T18:44:32.561Z,32.04
2023-09-06T18:47:01.058Z,33.46
2023-09-06T18:49:33.685Z,33.41
2023-09-06T18:52:02.067Z,33.15
2023-09-06T18:54:30.335Z,37.59
2023-09-06T18:56:58.586Z,35.64
2023-09-06T18:59:28.532Z,33.89
2023-09-06T19:01:56.934Z,39.46
2023-09-06T19:04:25.301Z,35.17
2023-09-06T19:06:54.305Z,38.03
2023-09-06T19:09:22.584Z,33.67
2023-09-06T19:11:50.909Z,33.69
2023-09-06T19:14:20.116Z,33.43
2023-09-06T19:17:00.853Z,34.42
2023-09-06T19:19:33.730Z,33.77
2023-09-06T19:22:02.023Z,33.30
2023-09-06T19:24:30.273Z,34.64
2023-09-06T19:27:04.798Z,33.86
2023-09-06T19:29:58.245Z,34.20
2023-09-06T19:32:26.664Z,33.89
2023-09-06T19:34:55.989Z,35.81
2023-09-06T19:37:24.258Z,34.74
2023-09-06T19:39:53.135Z,34.64
2023-09-06T19:42:22.510Z,36.00
2023-09-06T19:45:15.710Z,36.59
2023-09-06T19:47:52.057Z,34.78
2023-09-06T19:50:20.664Z,36.28
2023-09-06T19:52:49.086Z,37.33
2023-09-06T19:55:30.604Z,36.32
2023-09-06T19:57:59.006Z,36.46
2023-09-06T20:00:27.702Z,35.35
2023-09-06T20:03:02.396Z,36.54
2023-09-06T20:05:30.972Z,36.12
2023-09-06T20:08:06.140Z,35.66
2023-09-06T20:10:40.794Z,36.18
2023-09-06T20:13:09.033Z,36.79
2023-09-06T20:15:37.799Z,37.96
2023-09-06T20:18:07.806Z,36.32
2023-09-06T20:20:40.616Z,35.57
2023-09-06T20:23:11.101Z,36.71
2023-09-06T20:25:39.527Z,35.80
2023-09-06T20:28:07.801Z,34.94
2023-09-06T20:30:42.287Z,35.24
2023-09-06T20:33:11.630Z,36.21
2023-09-06T20:35:42.945Z,38.35
2023-09-06T20:38:12.798Z,37.16
2023-09-06T20:41:42.296Z,36.83
2023-09-06T20:44:10.833Z,37.19
2023-09-06T20:47:07.061Z,36.78
2023-09-06T20:49:35.633Z,38.71
2023-09-06T20:52:27.179Z,42.76
2023-09-06T20:54:56.451Z,44.81
2023-09-06T20:57:24.983Z,46.50
2023-09-06T20:59:53.230Z,45.06
2023-09-06T21:02:22.002Z,40.30
2023-09-06T21:04:50.741Z,38.90
2023-09-06T21:07:19.272Z,38.49
2023-09-06T21:09:47.642Z,39.70
2023-09-06T21:12:15.905Z,39.31
2023-09-06T21:14:44.500Z,39.48
2023-09-06T21:17:12.830Z,39.33
2023-09-06T21:19:41.139Z,38.75
2023-09-06T21:22:09.573Z,37.91
2023-09-06T21:24:37.606Z,38.38
2023-09-06T21:27:06.186Z,38.73
2023-09-06T21:29:34.438Z,39.18
2023-09-06T21:32:04.411Z,40.66
2023-09-06T21:34:32.849Z,40.14
2023-09-06T21:37:01.212Z,39.02
2023-09-06T21:39:29.761Z,40.54
2023-09-06T21:41:58.149Z,40.02
2023-09-06T21:44:27.456Z,40.94
2023-09-06T21:46:55.908Z,41.39
2023-09-06T21:49:28.342Z,43.87
2023-09-06T21:51:56.597Z,41.58
2023-09-06T21:54:49.810Z,40.21
2023-09-06T21:57:18.259Z,39.45
2023-09-06T21:59:46.542Z,39.43
2023-09-06T22:02:14.887Z,38.40
2023-09-06T22:05:01.879Z,38.64
2023-09-06T22:07:48.987Z,38.75
2023-09-06T22:10:46.161Z,40.44
2023-09-06T22:13:33.081Z,39.76
2023-09-06T22:16:14.915Z,39.48
2023-09-06T22:19:07.824Z,38.81
2023-09-06T22:21:42.582Z,38.39
2023-09-06T22:24:11.675Z,38.34
2023-09-06T22:26:40.182Z,38.39
2023-09-06T22:29:08.564Z,38.13
2023-09-06T22:31:37.838Z,38.45
2023-09-06T22:34:07.707Z,38.51
2023-09-06T22:36:36.018Z,38.49
2023-09-06T22:39:04.498Z,38.25
2023-09-06T22:41:33.345Z,38.58
2023-09-06T22:44:01.728Z,38.36
2023-09-06T22:46:30.114Z,38.64
2023-09-06T22:49:02.688Z,41.06
2023-09-06T22:51:31.387Z,41.12
2023-09-06T22:53:59.769Z,43.24
2023-09-06T22:56:28.072Z,42.46
2023-09-06T22:58:56.331Z,40.88
2023-09-06T23:01:24.739Z,40.01
2023-09-06T23:03:53.191Z,41.04
2023-09-06T23:06:26.781Z,40.78
2023-09-06T23:08:59.281Z,40.71
2023-09-06T23:11:28.736Z,40.59
2023-09-06T23:13:57.423Z,39.95
2023-09-06T23:16:42.469Z,40.03
2023-09-06T23:19:14.268Z,40.79
2023-09-06T23:21:44.160Z,41.23
2023-09-06T23:24:13.897Z,41.41
2023-09-06T23:27:07.933Z,44.30
2023-09-06T23:29:40.481Z,44.82
2023-09-06T23:32:10.944Z,48.42
2023-09-06T23:34:43.708Z,47.47
2023-09-06T23:37:35.645Z,47.90
2023-09-06T23:40:21.296Z,45.11
2023-09-06T23:42:57.948Z,45.03
2023-09-06T23:45:27.339Z,45.90
2023-09-06T23:47:58.090Z,44.70
2023-09-06T23:50:27.933Z,43.43
2023-09-06T23:52:57.154Z,46.08
2023-09-06T23:55:26.768Z,43.77
2023-09-06T23:57:55.088Z,44.02
